Time;durP1;ratioP1;P1;durP2;ratioP2;P2;SDS_P1;SDS_P2;PMS_P1;PMS_P2;Temp;Humidity;BMP_temperature;BMP_pressure;BME280_temperature;BME280_humidity;BME280_pressure;Samples;Min_cycle;Max_cycle;Signal;HPM_P1;HPM_P2
2024/02/05 00:02:30;;;;;;;3.08;1.40;;;;;;;;;;4938132;28;20050;-89
2024/02/05 00:05:15;;;;;;;4.03;1.60;;;;;;;;;;4958640;28;20027;-87
2024/02/05 00:08:00;;;;;;;4.68;1.75;;;;;;;;;;4946573;28;20106;-89
2024/02/05 00:10:46;;;;;;;3.15;1.60;;;;;;;;;;4954741;28;20078;-87
2024/02/05 00:13:34;;;;;;;3.58;1.88;;;;;;;;;;4948600;28;20089;-88
2024/02/05 00:16:20;;;;;;;3.05;1.73;;;;;;;;;;4959372;28;20049;-88
2024/02/05 00:19:05;;;;;;;2.53;1.73;;;;;;;;;;4951933;28;20065;-88
2024/02/05 00:21:50;;;;;;;1.92;1.42;;;;;;;;;;4950181;28;20054;-88
2024/02/05 00:24:35;;;;;;;2.13;1.33;;;;;;;;;;4955600;28;20627;-88
2024/02/05 00:27:21;;;;;;;3.58;1.42;;;;;;;;;;4947298;28;20038;-89
2024/02/05 00:30:06;;;;;;;1.92;1.30;;;;;;;;;;4956919;28;20038;-87
2024/02/05 00:32:52;;;;;;;1.65;1.15;;;;;;;;;;4959511;28;20061;-88
2024/02/05 00:35:37;;;;;;;3.47;1.48;;;;;;;;;;4946328;28;20098;-85
2024/02/05 00:38:22;;;;;;;4.07;1.70;;;;;;;;;;4970225;28;20022;-87
2024/02/05 00:41:08;;;;;;;2.78;1.58;;;;;;;;;;4947726;28;20037;-86
2024/02/05 00:43:53;;;;;;;1.52;1.30;;;;;;;;;;4956300;28;20022;-88
2024/02/05 00:46:38;;;;;;;5.22;1.83;;;;;;;;;;4952283;28;20109;-85
2024/02/05 00:49:24;;;;;;;5.30;1.58;;;;;;;;;;4950711;28;20026;-86
2024/02/05 00:52:10;;;;;;;2.78;1.38;;;;;;;;;;4950259;28;20031;-87
2024/02/05 00:54:55;;;;;;;3.45;1.50;;;;;;;;;;4953647;28;20748;-87
2024/02/05 00:57:41;;;;;;;2.63;1.42;;;;;;;;;;4949740;28;20038;-85
2024/02/05 01:00:26;;;;;;;2.75;1.50;;;;;;;;;;4965037;28;20105;-86
2024/02/05 01:03:13;;;;;;;3.13;1.67;;;;;;;;;;4963200;28;20026;-86
2024/02/05 01:05:58;;;;;;;1.95;1.30;;;;;;;;;;4955515;28;20085;-86
2024/02/05 01:08:44;;;;;;;2.00;1.58;;;;;;;;;;4959054;28;20034;-86
2024/02/05 01:11:29;;;;;;;2.47;1.58;;;;;;;;;;4967317;28;20011;-87
2024/02/05 01:14:15;;;;;;;2.72;2.00;;;;;;;;;;4951971;28;20071;-87
2024/02/05 01:17:00;;;;;;;1.67;1.13;;;;;;;;;;4949190;28;20122;-87
2024/02/05 01:19:48;;;;;;;1.38;1.00;;;;;;;;;;4955069;28;20026;-90
2024/02/05 01:22:33;;;;;;;2.50;1.40;;;;;;;;;;4949907;28;20050;-88
2024/02/05 01:25:18;;;;;;;3.78;1.70;;;;;;;;;;4952788;28;20027;-88
2024/02/05 01:28:04;;;;;;;2.17;1.45;;;;;;;;;;4947562;28;20081;-86
2024/02/05 01:30:49;;;;;;;2.22;1.40;;;;;;;;;;4951816;28;20027;-86
2024/02/05 01:33:34;;;;;;;3.42;1.52;;;;;;;;;;4955169;28;20030;-87
2024/02/05 01:36:20;;;;;;;1.55;1.30;;;;;;;;;;4969397;28;20034;-87
2024/02/05 01:39:06;;;;;;;2.13;1.20;;;;;;;;;;4950018;28;20025;-90
2024/02/05 01:41:51;;;;;;;1.73;1.15;;;;;;;;;;4956532;28;20027;-85
2024/02/05 01:44:37;;;;;;;0.95;0.90;;;;;;;;;;4942955;28;20481;-88
2024/02/05 01:47:25;;;;;;;0.80;0.80;;;;;;;;;;4973720;28;20121;-85
2024/02/05 01:50:12;;;;;;;1.45;0.90;;;;;;;;;;4956797;28;20023;-84
2024/02/05 01:52:58;;;;;;;1.08;0.75;;;;;;;;;;4949454;28;20033;-87
2024/02/05 01:55:45;;;;;;;1.05;0.77;;;;;;;;;;4958258;28;20030;-86
2024/02/05 01:58:31;;;;;;;1.20;1.00;;;;;;;;;;4948090;28;20038;-88
2024/02/05 02:01:16;;;;;;;0.68;0.60;;;;;;;;;;4960654;28;20042;-86
2024/02/05 02:04:02;;;;;;;1.08;0.88;;;;;;;;;;4962211;28;20401;-87
2024/02/05 02:06:48;;;;;;;0.93;0.80;;;;;;;;;;4961606;28;20478;-87
2024/02/05 02:09:34;;;;;;;1.80;0.93;;;;;;;;;;4964276;28;20022;-89
2024/02/05 02:12:20;;;;;;;1.15;0.80;;;;;;;;;;4965139;28;20085;-87
2024/02/05 02:15:05;;;;;;;2.67;0.80;;;;;;;;;;4953492;28;20065;-89
2024/02/05 02:17:53;;;;;;;2.08;1.40;;;;;;;;;;4975187;28;20038;-88
2024/02/05 02:20:42;;;;;;;1.00;0.70;;;;;;;;;;4950757;28;20050;-87
2024/02/05 02:23:32;;;;;;;2.17;1.08;;;;;;;;;;4949153;28;20478;-87
2024/02/05 02:26:17;;;;;;;1.05;0.80;;;;;;;;;;4957149;28;20066;-86
2024/02/05 02:29:02;;;;;;;1.20;0.70;;;;;;;;;;4954274;28;20765;-87
2024/02/05 02:31:51;;;;;;;1.83;0.70;;;;;;;;;;4957063;28;20109;-86
2024/02/05 02:34:40;;;;;;;2.47;1.10;;;;;;;;;;4952941;28;20035;-86
2024/02/05 02:37:27;;;;;;;3.00;1.30;;;;;;;;;;4945678;28;20027;-87
2024/02/05 02:40:14;;;;;;;2.05;1.15;;;;;;;;;;4948341;28;20286;-86
2024/02/05 02:43:02;;;;;;;3.20;1.08;;;;;;;;;;4948990;28;20035;-86
2024/02/05 02:45:49;;;;;;;0.70;0.70;;;;;;;;;;4950336;28;20026;-86
2024/02/05 02:48:34;;;;;;;1.42;0.90;;;;;;;;;;4948743;28;20713;-86
2024/02/05 02:51:20;;;;;;;1.20;1.10;;;;;;;;;;4965536;28;20030;-86
2024/02/05 02:54:05;;;;;;;1.67;0.85;;;;;;;;;;4965469;28;20034;-87
2024/02/05 02:56:51;;;;;;;1.52;0.95;;;;;;;;;;4957280;28;20061;-85
2024/02/05 02:59:36;;;;;;;3.47;1.40;;;;;;;;;;4961678;28;20027;-89
2024/02/05 03:02:21;;;;;;;1.00;0.70;;;;;;;;;;4952775;28;20023;-87
2024/02/05 03:05:07;;;;;;;1.42;0.80;;;;;;;;;;4970593;28;20096;-88
2024/02/05 03:07:52;;;;;;;0.80;0.80;;;;;;;;;;4957164;28;20450;-87
2024/02/05 03:10:38;;;;;;;1.92;0.88;;;;;;;;;;4957975;28;20609;-88
2024/02/05 03:13:23;;;;;;;5.43;1.60;;;;;;;;;;4961425;28;20057;-88
2024/02/05 03:16:08;;;;;;;1.52;0.73;;;;;;;;;;4966676;28;20041;-88
2024/02/05 03:18:53;;;;;;;0.98;0.80;;;;;;;;;;4950285;28;20038;-87
2024/02/05 03:21:39;;;;;;;2.50;0.93;;;;;;;;;;4967611;28;20182;-88
2024/02/05 03:24:24;;;;;;;1.08;0.80;;;;;;;;;;4972820;28;20034;-88
2024/02/05 03:27:09;;;;;;;1.02;0.88;;;;;;;;;;4976562;28;20034;-85
2024/02/05 03:29:55;;;;;;;2.53;0.70;;;;;;;;;;4980060;28;20023;-88
2024/02/05 03:32:40;;;;;;;0.60;0.60;;;;;;;;;;4983665;28;20026;-89
2024/02/05 03:35:26;;;;;;;1.52;0.68;;;;;;;;;;4982679;28;20034;-88
2024/02/05 03:38:11;;;;;;;1.02;0.85;;;;;;;;;;4987945;28;20033;-87
2024/02/05 03:40:56;;;;;;;2.40;0.75;;;;;;;;;;4975584;28;20038;-86
2024/02/05 03:43:43;;;;;;;1.40;0.80;;;;;;;;;;4953023;28;20383;-87
2024/02/05 03:46:28;;;;;;;1.50;0.60;;;;;;;;;;4975474;28;20023;-87
2024/02/05 03:49:13;;;;;;;3.08;0.70;;;;;;;;;;4959071;28;20055;-86
2024/02/05 03:51:58;;;;;;;1.02;0.80;;;;;;;;;;4952040;28;20433;-86
2024/02/05 03:54:46;;;;;;;4.35;0.77;;;;;;;;;;4947784;28;20121;-86
2024/02/05 03:57:35;;;;;;;0.93;0.80;;;;;;;;;;4944203;28;20214;-86
2024/02/05 04:00:20;;;;;;;1.42;0.60;;;;;;;;;;4949397;28;20543;-86
2024/02/05 04:03:06;;;;;;;1.27;0.60;;;;;;;;;;4946681;28;20058;-86
2024/02/05 04:05:51;;;;;;;0.73;0.60;;;;;;;;;;4951707;28;20047;-86
2024/02/05 04:08:36;;;;;;;0.82;0.60;;;;;;;;;;4976756;28;20536;-83
2024/02/05 04:11:21;;;;;;;0.70;0.60;;;;;;;;;;4952768;28;20034;-86
2024/02/05 04:14:09;;;;;;;1.10;0.80;;;;;;;;;;4967988;28;20026;-88
2024/02/05 04:16:55;;;;;;;1.92;0.70;;;;;;;;;;4960993;28;20050;-85
2024/02/05 04:19:43;;;;;;;0.82;0.70;;;;;;;;;;4960120;28;20034;-88
2024/02/05 04:22:28;;;;;;;1.70;0.80;;;;;;;;;;4935924;28;20022;-87
2024/02/05 04:25:14;;;;;;;1.63;1.10;;;;;;;;;;4958692;28;20638;-89
2024/02/05 04:28:02;;;;;;;1.13;0.63;;;;;;;;;;4948803;28;20054;-89
2024/02/05 04:30:50;;;;;;;1.15;0.80;;;;;;;;;;4956815;28;20059;-88
2024/02/05 04:33:35;;;;;;;0.98;0.95;;;;;;;;;;4952701;28;20031;-89
2024/02/05 04:36:20;;;;;;;1.08;0.77;;;;;;;;;;4955042;28;20051;-87
2024/02/05 04:39:10;;;;;;;0.50;0.50;;;;;;;;;;4933649;28;20572;-88
2024/02/05 04:41:55;;;;;;;0.98;0.70;;;;;;;;;;4943692;28;20038;-88
2024/02/05 04:44:40;;;;;;;1.00;0.60;;;;;;;;;;4950535;28;20031;-87
2024/02/05 04:47:26;;;;;;;1.63;0.70;;;;;;;;;;4951095;28;20022;-87
2024/02/05 04:50:12;;;;;;;0.60;0.60;;;;;;;;;;4944003;28;20019;-87
2024/02/05 04:52:57;;;;;;;0.73;0.73;;;;;;;;;;4956202;28;20023;-86
2024/02/05 04:55:42;;;;;;;1.27;0.70;;;;;;;;;;4945818;28;20022;-87
2024/02/05 04:58:27;;;;;;;1.05;0.75;;;;;;;;;;4949707;28;20022;-86
2024/02/05 05:01:13;;;;;;;0.60;0.60;;;;;;;;;;4946091;28;20030;-88
2024/02/05 05:03:58;;;;;;;2.67;0.98;;;;;;;;;;4956643;28;20093;-87
2024/02/05 05:06:43;;;;;;;0.82;0.70;;;;;;;;;;4931563;28;20080;-87
2024/02/05 05:09:28;;;;;;;1.20;0.70;;;;;;;;;;4938234;28;20019;-88
2024/02/05 05:12:14;;;;;;;1.67;0.90;;;;;;;;;;4934644;28;20034;-89
2024/02/05 05:15:02;;;;;;;0.70;0.70;;;;;;;;;;4937062;28;20043;-88
2024/02/05 05:17:47;;;;;;;1.95;0.70;;;;;;;;;;4953214;28;20035;-88
2024/02/05 05:20:32;;;;;;;1.70;1.00;;;;;;;;;;4951418;28;20464;-88
2024/02/05 05:23:18;;;;;;;2.50;0.90;;;;;;;;;;4966689;28;20030;-90
2024/02/05 05:26:03;;;;;;;1.25;0.73;;;;;;;;;;4952174;28;20014;-87
2024/02/05 05:28:51;;;;;;;0.80;0.80;;;;;;;;;;4949266;28;20058;-89
2024/02/05 05:31:37;;;;;;;2.95;0.80;;;;;;;;;;4936964;28;20031;-88
2024/02/05 05:34:22;;;;;;;1.38;0.90;;;;;;;;;;4938198;28;20058;-86
2024/02/05 05:37:08;;;;;;;0.98;0.90;;;;;;;;;;4952201;28;20109;-86
2024/02/05 05:39:53;;;;;;;2.90;1.20;;;;;;;;;;4981736;28;20592;-88
2024/02/05 05:42:41;;;;;;;1.77;1.00;;;;;;;;;;4969805;28;20036;-85
2024/02/05 05:45:29;;;;;;;1.13;0.85;;;;;;;;;;4951273;28;20033;-86
2024/02/05 05:48:14;;;;;;;2.50;1.05;;;;;;;;;;4946984;28;20063;-89
2024/02/05 05:50:59;;;;;;;2.25;1.15;;;;;;;;;;4941513;28;20363;-90
2024/02/05 05:53:44;;;;;;;1.35;0.93;;;;;;;;;;4932507;29;20039;-85
2024/02/05 05:56:30;;;;;;;1.92;1.10;;;;;;;;;;4948728;28;20050;-86
2024/02/05 05:59:15;;;;;;;4.63;1.00;;;;;;;;;;4937434;28;20037;-88
2024/02/05 06:02:00;;;;;;;1.25;0.90;;;;;;;;;;4937477;28;20039;-88
2024/02/05 06:04:45;;;;;;;2.88;0.93;;;;;;;;;;4945049;28;20031;-88
2024/02/05 06:07:31;;;;;;;3.15;1.23;;;;;;;;;;4952453;28;20494;-89
2024/02/05 06:10:16;;;;;;;1.08;0.73;;;;;;;;;;4941155;28;20033;-87
2024/02/05 06:13:03;;;;;;;3.80;1.00;;;;;;;;;;4950146;28;20030;-86
2024/02/05 06:15:48;;;;;;;2.55;1.40;;;;;;;;;;4955221;28;20086;-85
2024/02/05 06:18:34;;;;;;;1.27;1.00;;;;;;;;;;4948615;28;20138;-88
2024/02/05 06:21:19;;;;;;;3.88;1.27;;;;;;;;;;4949719;28;20095;-84
2024/02/05 06:24:04;;;;;;;1.27;0.90;;;;;;;;;;4944915;28;20018;-81
2024/02/05 06:26:50;;;;;;;2.10;0.90;;;;;;;;;;4950039;28;20482;-82
2024/02/05 06:29:36;;;;;;;1.92;1.08;;;;;;;;;;4967325;28;20023;-81
2024/02/05 06:32:21;;;;;;;2.40;1.55;;;;;;;;;;4950936;28;20018;-82
2024/02/05 06:35:06;;;;;;;2.25;1.10;;;;;;;;;;4968919;28;20026;-82
2024/02/05 06:37:54;;;;;;;3.72;1.10;;;;;;;;;;4968093;28;20031;-81
2024/02/05 06:40:39;;;;;;;2.35;0.88;;;;;;;;;;4964580;28;20631;-82
2024/02/05 06:43:24;;;;;;;4.03;1.00;;;;;;;;;;4948604;28;20081;-82
2024/02/05 06:46:10;;;;;;;3.17;1.17;;;;;;;;;;4963957;28;20406;-82
2024/02/05 06:48:55;;;;;;;2.13;1.13;;;;;;;;;;4948250;28;20023;-81
2024/02/05 06:51:41;;;;;;;1.67;1.13;;;;;;;;;;4966585;28;20220;-83
2024/02/05 06:54:27;;;;;;;0.85;0.85;;;;;;;;;;4970510;28;20034;-83
2024/02/05 06:57:13;;;;;;;2.88;1.40;;;;;;;;;;4953138;28;20030;-83
2024/02/05 06:59:58;;;;;;;3.40;0.95;;;;;;;;;;4954365;28;20089;-82
2024/02/05 07:02:43;;;;;;;0.90;0.80;;;;;;;;;;4962141;28;20034;-81
2024/02/05 07:05:28;;;;;;;3.33;0.98;;;;;;;;;;4942956;28;20038;-82
2024/02/05 07:08:14;;;;;;;0.98;0.60;;;;;;;;;;4948148;28;20468;-82
2024/02/05 07:10:59;;;;;;;2.15;0.80;;;;;;;;;;4946471;28;20114;-82
2024/02/05 07:13:44;;;;;;;1.25;0.90;;;;;;;;;;4947320;28;20027;-83
2024/02/05 07:16:30;;;;;;;1.38;0.70;;;;;;;;;;4954485;28;20058;-84
2024/02/05 07:19:15;;;;;;;2.53;0.98;;;;;;;;;;4958423;28;20541;-79
2024/02/05 07:22:00;;;;;;;1.25;1.02;;;;;;;;;;4965576;28;20114;-79
2024/02/05 07:24:46;;;;;;;2.92;1.00;;;;;;;;;;4955482;28;20035;-82
2024/02/05 07:27:31;;;;;;;0.80;0.75;;;;;;;;;;4958349;28;20026;-84
2024/02/05 07:30:17;;;;;;;1.00;0.70;;;;;;;;;;4952612;28;20549;-85
2024/02/05 07:33:02;;;;;;;1.95;0.70;;;;;;;;;;4954062;28;20082;-84
2024/02/05 07:35:47;;;;;;;4.22;1.13;;;;;;;;;;4944750;28;20052;-85
2024/02/05 07:38:33;;;;;;;4.53;1.42;;;;;;;;;;4946963;28;20018;-86
2024/02/05 07:41:19;;;;;;;4.63;2.10;;;;;;;;;;4957078;28;20038;-83
2024/02/05 07:44:04;;;;;;;3.42;1.23;;;;;;;;;;4946647;28;20029;-80
2024/02/05 07:46:49;;;;;;;4.10;1.48;;;;;;;;;;4955627;28;20049;-80
2024/02/05 07:49:35;;;;;;;4.38;1.00;;;;;;;;;;4959473;28;20057;-81
2024/02/05 07:52:21;;;;;;;5.60;1.52;;;;;;;;;;4946857;28;20026;-83
2024/02/05 07:55:06;;;;;;;3.80;1.40;;;;;;;;;;4949885;28;20079;-83
2024/02/05 07:57:51;;;;;;;1.92;1.20;;;;;;;;;;4961267;28;20023;-82
2024/02/05 08:00:37;;;;;;;4.45;1.33;;;;;;;;;;4968912;28;20040;-81
2024/02/05 08:03:22;;;;;;;1.42;0.98;;;;;;;;;;4953980;28;20026;-82
2024/02/05 08:06:08;;;;;;;4.45;1.67;;;;;;;;;;4951849;28;20023;-81
2024/02/05 08:08:53;;;;;;;6.22;1.33;;;;;;;;;;4951904;28;20047;-82
2024/02/05 08:11:39;;;;;;;1.90;0.90;;;;;;;;;;4967139;28;20073;-82
2024/02/05 08:14:24;;;;;;;1.45;0.95;;;;;;;;;;4961307;28;20019;-80
2024/02/05 08:17:09;;;;;;;3.10;0.90;;;;;;;;;;4954000;28;20479;-81
2024/02/05 08:19:55;;;;;;;3.25;1.10;;;;;;;;;;4943201;28;20381;-81
2024/02/05 08:22:40;;;;;;;3.85;1.20;;;;;;;;;;4945444;28;20031;-81
2024/02/05 08:25:29;;;;;;;0.98;0.80;;;;;;;;;;4947716;28;20058;-80
2024/02/05 08:28:14;;;;;;;3.10;0.90;;;;;;;;;;4950482;28;20402;-80
2024/02/05 08:30:59;;;;;;;3.33;1.23;;;;;;;;;;4944513;28;20531;-81
2024/02/05 08:33:45;;;;;;;3.53;1.00;;;;;;;;;;4952556;28;20019;-79
2024/02/05 08:36:30;;;;;;;3.97;1.42;;;;;;;;;;4955207;28;20034;-79
2024/02/05 08:39:15;;;;;;;1.48;1.33;;;;;;;;;;4942714;28;20062;-80
2024/02/05 08:42:01;;;;;;;4.05;1.00;;;;;;;;;;4948488;28;20109;-80
2024/02/05 08:44:46;;;;;;;2.47;1.00;;;;;;;;;;4958264;28;20038;-80
2024/02/05 08:47:31;;;;;;;3.03;1.30;;;;;;;;;;4945783;28;20027;-81
2024/02/05 08:50:17;;;;;;;1.52;1.13;;;;;;;;;;4956779;28;20027;-82
2024/02/05 08:53:03;;;;;;;1.15;0.80;;;;;;;;;;4943493;28;20030;-79
2024/02/05 08:55:48;;;;;;;3.45;1.35;;;;;;;;;;4952410;28;20062;-79
2024/02/05 08:58:34;;;;;;;3.03;1.58;;;;;;;;;;4946485;28;20117;-80
2024/02/05 09:01:19;;;;;;;1.73;0.93;;;;;;;;;;4938499;28;20141;-79
2024/02/05 09:04:04;;;;;;;2.58;1.30;;;;;;;;;;4941207;28;20022;-79
2024/02/05 09:06:50;;;;;;;2.42;1.30;;;;;;;;;;4939643;28;20027;-80
2024/02/05 09:09:39;;;;;;;6.22;1.23;;;;;;;;;;4946981;28;20110;-80
2024/02/05 09:12:24;;;;;;;5.05;1.98;;;;;;;;;;4947693;28;20018;-82
2024/02/05 09:15:10;;;;;;;1.42;1.10;;;;;;;;;;4943497;28;20398;-81
2024/02/05 09:17:56;;;;;;;5.18;1.17;;;;;;;;;;4951078;28;20022;-80
2024/02/05 09:20:44;;;;;;;5.00;1.35;;;;;;;;;;4947432;28;20058;-82
2024/02/05 09:23:29;;;;;;;4.85;1.40;;;;;;;;;;4943494;28;20022;-80
2024/02/05 09:26:15;;;;;;;2.40;1.20;;;;;;;;;;4950681;28;20232;-83
2024/02/05 09:29:00;;;;;;;3.13;1.02;;;;;;;;;;4944030;28;20011;-81
2024/02/05 09:31:45;;;;;;;1.10;0.77;;;;;;;;;;4947466;28;20030;-81
2024/02/05 09:34:31;;;;;;;5.00;1.10;;;;;;;;;;4946423;28;20026;-80
2024/02/05 09:37:16;;;;;;;2.28;1.00;;;;;;;;;;4959844;28;20389;-81
2024/02/05 09:40:01;;;;;;;2.78;1.23;;;;;;;;;;4931664;28;20127;-79
2024/02/05 09:42:47;;;;;;;2.17;1.25;;;;;;;;;;4948835;28;20027;-81
2024/02/05 09:45:34;;;;;;;2.78;1.00;;;;;;;;;;4955034;28;20641;-80
2024/02/05 09:48:20;;;;;;;2.55;0.90;;;;;;;;;;4941930;28;20485;-80
2024/02/05 09:51:06;;;;;;;1.98;1.10;;;;;;;;;;4952075;28;20026;-80
2024/02/05 09:53:51;;;;;;;4.75;0.90;;;;;;;;;;4960499;28;20031;-79
2024/02/05 09:56:36;;;;;;;1.75;0.90;;;;;;;;;;4935937;28;20031;-80
2024/02/05 09:59:22;;;;;;;2.67;1.02;;;;;;;;;;4969293;28;20066;-79
2024/02/05 10:02:07;;;;;;;4.20;1.45;;;;;;;;;;4961247;28;20034;-80
2024/02/05 10:04:53;;;;;;;4.20;1.35;;;;;;;;;;4945297;28;20026;-80
2024/02/05 10:07:39;;;;;;;5.90;1.17;;;;;;;;;;4947681;28;20026;-80
2024/02/05 10:10:25;;;;;;;2.85;1.27;;;;;;;;;;4967200;28;20034;-79
2024/02/05 10:13:11;;;;;;;6.50;2.13;;;;;;;;;;4953224;28;20086;-80
2024/02/05 10:15:56;;;;;;;4.05;1.58;;;;;;;;;;4943275;28;20086;-79
2024/02/05 10:18:41;;;;;;;4.97;1.20;;;;;;;;;;4927905;28;20031;-80
2024/02/05 10:21:26;;;;;;;4.65;1.80;;;;;;;;;;4937021;28;20027;-78
2024/02/05 10:24:15;;;;;;;2.60;1.10;;;;;;;;;;4934937;29;20016;-80
2024/02/05 10:27:00;;;;;;;3.10;1.23;;;;;;;;;;4935566;28;20038;-80
2024/02/05 10:29:46;;;;;;;3.33;1.02;;;;;;;;;;4944769;28;20035;-80
2024/02/05 10:32:32;;;;;;;4.55;1.40;;;;;;;;;;4944668;28;20479;-80
2024/02/05 10:35:18;;;;;;;10.15;2.30;;;;;;;;;;4951268;28;20043;-79
2024/02/05 10:38:08;;;;;;;5.65;1.38;;;;;;;;;;4940045;28;20494;-78
2024/02/05 10:41:11;;;;;;;3.22;1.15;;;;;;;;;;4931397;28;20367;-81
2024/02/05 10:43:57;;;;;;;1.55;1.02;;;;;;;;;;4933748;28;20091;-80
2024/02/05 10:46:45;;;;;;;3.70;1.38;;;;;;;;;;4946034;28;20074;-81
2024/02/05 10:49:30;;;;;;;6.38;1.40;;;;;;;;;;4941627;28;20038;-82
2024/02/05 10:52:16;;;;;;;4.88;1.63;;;;;;;;;;4934414;28;20034;-81
2024/02/05 10:55:06;;;;;;;3.70;1.40;;;;;;;;;;4943357;28;20074;-80
2024/02/05 10:57:55;;;;;;;5.13;1.70;;;;;;;;;;4944612;28;20043;-80
2024/02/05 11:00:41;;;;;;;3.75;1.65;;;;;;;;;;4945147;28;20034;-80
2024/02/05 11:03:27;;;;;;;3.92;1.30;;;;;;;;;;4944590;28;20022;-80
2024/02/05 11:06:13;;;;;;;5.72;1.50;;;;;;;;;;4935112;28;20917;-79
2024/02/05 11:08:59;;;;;;;4.82;1.60;;;;;;;;;;4944496;28;20047;-78
2024/02/05 11:11:46;;;;;;;4.07;1.33;;;;;;;;;;4933921;29;20074;-78
2024/02/05 11:14:33;;;;;;;5.72;1.77;;;;;;;;;;4937968;29;20114;-78
2024/02/05 11:17:18;;;;;;;4.45;1.17;;;;;;;;;;4938966;28;20051;-78
2024/02/05 11:20:06;;;;;;;4.70;1.20;;;;;;;;;;4940762;29;20042;-79
2024/02/05 11:22:56;;;;;;;3.63;1.73;;;;;;;;;;4938251;29;20078;-77
2024/02/05 11:25:41;;;;;;;;;;;;;;;;;;4931823;29;20031;-77
2024/02/05 11:28:27;;;;;;;4.25;1.30;;;;;;;;;;4948269;28;20005;-78
2024/02/05 11:31:16;;;;;;;3.22;1.50;;;;;;;;;;4945462;29;20027;-78
2024/02/05 11:34:01;;;;;;;3.53;1.42;;;;;;;;;;4943271;28;20031;-76
2024/02/05 11:36:48;;;;;;;5.25;1.40;;;;;;;;;;4933327;29;20106;-78
2024/02/05 11:39:32;;;;;;;3.95;1.48;;;;;;;;;;4961818;28;20167;-79
2024/02/05 11:42:17;;;;;;;12.15;2.25;;;;;;;;;;4946457;28;20796;-79
2024/02/05 11:45:04;;;;;;;5.03;2.10;;;;;;;;;;4941923;28;20422;-79
2024/02/05 11:47:50;;;;;;;5.00;1.85;;;;;;;;;;4943381;28;20103;-78
2024/02/05 11:50:35;;;;;;;7.00;2.55;;;;;;;;;;4938119;29;20035;-79
2024/02/05 11:53:20;;;;;;;6.45;1.77;;;;;;;;;;4935804;29;20027;-80
2024/02/05 11:56:07;;;;;;;5.88;1.90;;;;;;;;;;4943943;28;20058;-79
2024/02/05 11:58:52;;;;;;;5.50;1.52;;;;;;;;;;4950806;28;20105;-80
2024/02/05 12:01:38;;;;;;;3.28;1.63;;;;;;;;;;4955287;28;20042;-81
2024/02/05 12:04:23;;;;;;;8.73;1.67;;;;;;;;;;4952031;28;20031;-83
2024/02/05 12:07:09;;;;;;;4.30;1.98;;;;;;;;;;4945385;28;20039;-81
2024/02/05 12:09:54;;;;;;;3.70;1.40;;;;;;;;;;4944056;28;20050;-82
2024/02/05 12:12:39;;;;;;;4.53;1.88;;;;;;;;;;4944887;28;20122;-81
2024/02/05 12:15:29;;;;;;;10.65;2.40;;;;;;;;;;4940209;28;20043;-80
2024/02/05 12:18:15;;;;;;;3.05;1.48;;;;;;;;;;4933040;28;20035;-80
2024/02/05 12:21:00;;;;;;;11.35;2.10;;;;;;;;;;4929051;28;20035;-80
2024/02/05 12:23:46;;;;;;;7.32;2.03;;;;;;;;;;4928809;29;20023;-81
2024/02/05 12:26:31;;;;;;;4.43;2.17;;;;;;;;;;4947862;28;20415;-78
2024/02/05 12:29:23;;;;;;;6.25;1.73;;;;;;;;;;4963447;28;20019;-80
2024/02/05 12:32:09;;;;;;;4.18;1.30;;;;;;;;;;4951719;28;20027;-80
2024/02/05 12:34:57;;;;;;;7.35;1.55;;;;;;;;;;4960199;28;20117;-80
2024/02/05 12:37:42;;;;;;;4.90;1.73;;;;;;;;;;4951950;28;20059;-81
2024/02/05 12:40:27;;;;;;;8.02;2.00;;;;;;;;;;4935529;28;20027;-78
2024/02/05 12:43:13;;;;;;;6.85;1.63;;;;;;;;;;4935344;28;20633;-79
2024/02/05 12:45:59;;;;;;;5.30;1.55;;;;;;;;;;4939234;28;20031;-79
2024/02/05 12:48:46;;;;;;;6.45;2.40;;;;;;;;;;4940055;28;20106;-78
2024/02/05 12:51:32;;;;;;;5.13;2.47;;;;;;;;;;4939765;28;20614;-77
2024/02/05 12:54:17;;;;;;;5.93;2.22;;;;;;;;;;4936355;28;20019;-81
2024/02/05 12:57:03;;;;;;;7.43;2.45;;;;;;;;;;4938667;28;20117;-80
2024/02/05 12:59:48;;;;;;;4.72;2.08;;;;;;;;;;4944715;28;20041;-79
2024/02/05 13:02:34;;;;;;;6.30;1.65;;;;;;;;;;4947490;28;20026;-80
2024/02/05 13:05:19;;;;;;;5.00;1.60;;;;;;;;;;4960883;28;20038;-80
2024/02/05 13:08:07;;;;;;;8.73;1.98;;;;;;;;;;4964462;28;20368;-81
2024/02/05 13:10:52;;;;;;;5.38;1.55;;;;;;;;;;4956362;28;20029;-81
2024/02/05 13:13:38;;;;;;;7.05;1.75;;;;;;;;;;4944127;28;20225;-81
2024/02/05 13:16:24;;;;;;;4.13;1.38;;;;;;;;;;4958084;28;20057;-80
2024/02/05 13:19:10;;;;;;;7.30;1.80;;;;;;;;;;4955497;28;20182;-81
2024/02/05 13:21:55;;;;;;;4.85;1.45;;;;;;;;;;4942894;28;20110;-80
2024/02/05 13:24:40;;;;;;;7.05;1.70;;;;;;;;;;4958314;28;20165;-79
2024/02/05 13:27:25;;;;;;;6.05;1.80;;;;;;;;;;4949815;28;20023;-79
2024/02/05 13:30:12;;;;;;;5.53;1.75;;;;;;;;;;4947403;28;20605;-80
2024/02/05 13:32:57;;;;;;;5.10;1.58;;;;;;;;;;4944675;28;20050;-80
2024/02/05 13:35:42;;;;;;;6.47;1.55;;;;;;;;;;4948807;28;20031;-79
2024/02/05 13:38:28;;;;;;;5.30;1.42;;;;;;;;;;4935715;28;20089;-79
2024/02/05 13:41:14;;;;;;;9.48;2.05;;;;;;;;;;4937636;28;20035;-79
2024/02/05 13:43:59;;;;;;;8.15;1.85;;;;;;;;;;4941607;28;20097;-79
2024/02/05 13:46:44;;;;;;;8.07;3.28;;;;;;;;;;4950895;28;20084;-78
2024/02/05 13:49:29;;;;;;;4.20;2.03;;;;;;;;;;4953697;28;20457;-79
2024/02/05 13:52:19;;;;;;;7.13;1.88;;;;;;;;;;4934240;28;20090;-79
2024/02/05 13:55:05;;;;;;;6.60;1.65;;;;;;;;;;4940203;28;20034;-79
2024/02/05 13:57:50;;;;;;;10.07;2.13;;;;;;;;;;4943897;28;20446;-78
2024/02/05 14:00:40;;;;;;;2.72;1.60;;;;;;;;;;4941875;28;20031;-78
2024/02/05 14:03:25;;;;;;;9.98;2.10;;;;;;;;;;4945559;28;20037;-79
2024/02/05 14:06:11;;;;;;;2.28;1.33;;;;;;;;;;4935659;29;20449;-79
2024/02/05 14:08:56;;;;;;;6.20;1.55;;;;;;;;;;4943121;28;20094;-81
2024/02/05 14:11:42;;;;;;;3.22;1.30;;;;;;;;;;4931147;28;20127;-81
2024/02/05 14:14:29;;;;;;;5.38;2.50;;;;;;;;;;4939192;29;20039;-81
2024/02/05 14:17:14;;;;;;;3.67;1.38;;;;;;;;;;4935518;28;20078;-80
2024/02/05 14:19:59;;;;;;;7.00;1.92;;;;;;;;;;4938795;28;20106;-79
2024/02/05 14:22:45;;;;;;;8.88;1.77;;;;;;;;;;4957809;28;20466;-79
2024/02/05 14:25:30;;;;;;;7.70;1.95;;;;;;;;;;4944698;28;20035;-79
2024/02/05 14:28:15;;;;;;;4.63;1.60;;;;;;;;;;4951536;28;20118;-80
2024/02/05 14:31:01;;;;;;;5.72;2.13;;;;;;;;;;4932777;28;20481;-79
2024/02/05 14:33:48;;;;;;;6.10;1.90;;;;;;;;;;4963079;28;20054;-79
2024/02/05 14:36:33;;;;;;;10.63;2.13;;;;;;;;;;4954271;28;20031;-79
2024/02/05 14:39:19;;;;;;;8.77;1.98;;;;;;;;;;4961698;28;20024;-79
2024/02/05 14:42:04;;;;;;;5.53;1.77;;;;;;;;;;4945257;28;20043;-79
2024/02/05 14:44:49;;;;;;;2.72;1.63;;;;;;;;;;4944191;28;20395;-80
2024/02/05 14:47:35;;;;;;;5.57;1.73;;;;;;;;;;4944300;28;20427;-80
2024/02/05 14:50:20;;;;;;;6.47;2.15;;;;;;;;;;4933035;29;20035;-78
2024/02/05 14:53:06;;;;;;;9.57;2.13;;;;;;;;;;4941474;28;20031;-79
2024/02/05 14:55:51;;;;;;;7.72;1.90;;;;;;;;;;4925096;29;20111;-78
2024/02/05 14:58:36;;;;;;;7.43;2.55;;;;;;;;;;4949627;28;20034;-79
2024/02/05 15:01:21;;;;;;;4.97;1.70;;;;;;;;;;4928682;29;20031;-78
2024/02/05 15:04:07;;;;;;;2.58;1.50;;;;;;;;;;4950626;28;20034;-78
2024/02/05 15:06:52;;;;;;;5.57;1.50;;;;;;;;;;4961582;28;20045;-78
2024/02/05 15:09:37;;;;;;;4.15;1.50;;;;;;;;;;4960412;28;20541;-79
2024/02/05 15:12:22;;;;;;;3.08;1.45;;;;;;;;;;4950295;28;20037;-78
2024/02/05 15:15:09;;;;;;;3.88;1.88;;;;;;;;;;4944877;28;20066;-79
2024/02/05 15:17:55;;;;;;;9.88;2.08;;;;;;;;;;4966306;28;20027;-78
2024/02/05 15:20:41;;;;;;;12.75;3.40;;;;;;;;;;4933377;29;20063;-78
2024/02/05 15:23:26;;;;;;;8.43;3.00;;;;;;;;;;4930646;29;20023;-78
2024/02/05 15:26:12;;;;;;;7.95;3.17;;;;;;;;;;4947323;28;20026;-77
2024/02/05 15:28:57;;;;;;;10.70;2.70;;;;;;;;;;4952561;28;20477;-79
2024/02/05 15:31:43;;;;;;;7.82;2.47;;;;;;;;;;4960724;28;20035;-80
2024/02/05 15:34:33;;;;;;;8.45;2.08;;;;;;;;;;4973559;28;20113;-77
2024/02/05 15:37:20;;;;;;;6.10;1.95;;;;;;;;;;4979218;28;20030;-78
2024/02/05 15:40:05;;;;;;;10.43;2.28;;;;;;;;;;4962890;28;20034;-79
2024/02/05 15:42:51;;;;;;;7.97;2.53;;;;;;;;;;4969990;28;20030;-79
2024/02/05 15:45:36;;;;;;;10.18;2.28;;;;;;;;;;4953612;28;20083;-81
2024/02/05 15:48:23;;;;;;;7.30;2.38;;;;;;;;;;4974163;28;20248;-80
2024/02/05 15:51:08;;;;;;;9.30;3.05;;;;;;;;;;4968567;28;20029;-80
2024/02/05 15:53:53;;;;;;;8.93;3.05;;;;;;;;;;4948846;28;20063;-80
2024/02/05 15:56:39;;;;;;;12.82;3.97;;;;;;;;;;4946954;29;20438;-79
2024/02/05 15:59:24;;;;;;;13.80;3.38;;;;;;;;;;4938204;28;20034;-81
2024/02/05 16:02:10;;;;;;;9.65;3.30;;;;;;;;;;4950816;28;20043;-79
2024/02/05 16:04:55;;;;;;;9.50;3.00;;;;;;;;;;4948858;28;20066;-79
2024/02/05 16:07:40;;;;;;;7.40;3.67;;;;;;;;;;4946850;28;20034;-79
2024/02/05 16:10:26;;;;;;;9.80;3.72;;;;;;;;;;4949204;28;20026;-80
2024/02/05 16:13:11;;;;;;;10.13;3.95;;;;;;;;;;4948099;28;20020;-80
2024/02/05 16:15:56;;;;;;;7.28;2.72;;;;;;;;;;4949114;28;20085;-80
2024/02/05 16:18:42;;;;;;;12.05;3.45;;;;;;;;;;4965638;28;20056;-81
2024/02/05 16:21:27;;;;;;;13.98;4.05;;;;;;;;;;4970649;28;20077;-80
2024/02/05 16:24:15;;;;;;;10.32;2.70;;;;;;;;;;4957909;28;20050;-79
2024/02/05 16:27:00;;;;;;;10.05;3.35;;;;;;;;;;4932971;29;20034;-78
2024/02/05 16:29:45;;;;;;;13.75;3.38;;;;;;;;;;4941392;28;20029;-79
2024/02/05 16:32:30;;;;;;;12.57;2.78;;;;;;;;;;4953442;28;20034;-82
2024/02/05 16:35:16;;;;;;;10.15;3.53;;;;;;;;;;4951971;28;20106;-81